sensor_id;sensor_type;location;lat;lon;timestamp;P1;durP1;ratioP1;P2;durP2;ratioP2
62024;SDS011;47978;49.118;12.146;2023-07-20T00:01:43;7.35;;;4.85;;
62024;SDS011;47978;49.118;12.146;2023-07-20T00:05:46;6.00;;;4.47;;
62024;SDS011;47978;49.118;12.146;2023-07-20T00:09:48;7.57;;;4.28;;
62024;SDS011;47978;49.118;12.146;2023-07-20T00:13:49;6.93;;;4.72;;
62024;SDS011;47978;49.118;12.146;2023-07-20T00:17:51;7.45;;;4.97;;
62024;SDS011;47978;49.118;12.146;2023-07-20T00:21:54;8.00;;;4.75;;
62024;SDS011;47978;49.118;12.146;2023-07-20T00:25:56;8.02;;;5.60;;
62024;SDS011;47978;49.118;12.146;2023-07-20T00:29:57;8.18;;;5.25;;
62024;SDS011;47978;49.118;12.146;2023-07-20T00:33:59;7.47;;;5.15;;
62024;SDS011;47978;49.118;12.146;2023-07-20T00:38:02;5.95;;;4.82;;
62024;SDS011;47978;49.118;12.146;2023-07-20T00:42:04;8.90;;;5.25;;
62024;SDS011;47978;49.118;12.146;2023-07-20T00:46:07;9.00;;;5.50;;
62024;SDS011;47978;49.118;12.146;2023-07-20T00:50:09;9.80;;;5.50;;
62024;SDS011;47978;49.118;12.146;2023-07-20T00:54:12;11.95;;;5.80;;
62024;SDS011;47978;49.118;12.146;2023-07-20T00:58:14;14.98;;;6.22;;
62024;SDS011;47978;49.118;12.146;2023-07-20T01:02:15;10.02;;;5.13;;
62024;SDS011;47978;49.118;12.146;2023-07-20T01:06:20;7.78;;;5.30;;
62024;SDS011;47978;49.118;12.146;2023-07-20T01:10:31;7.60;;;5.20;;
62024;SDS011;47978;49.118;12.146;2023-07-20T01:14:37;7.22;;;4.57;;
62024;SDS011;47978;49.118;12.146;2023-07-20T01:18:38;8.00;;;5.13;;
62024;SDS011;47978;49.118;12.146;2023-07-20T01:22:59;10.73;;;5.40;;
62024;SDS011;47978;49.118;12.146;2023-07-20T01:31:56;7.47;;;5.00;;
62024;SDS011;47978;49.118;12.146;2023-07-20T01:35:59;7.28;;;4.80;;
62024;SDS011;47978;49.118;12.146;2023-07-20T01:40:01;8.80;;;5.50;;
62024;SDS011;47978;49.118;12.146;2023-07-20T01:44:03;7.97;;;5.60;;
62024;SDS011;47978;49.118;12.146;2023-07-20T01:48:06;6.50;;;4.87;;
62024;SDS011;47978;49.118;12.146;2023-07-20T01:56:10;7.70;;;4.60;;
62024;SDS011;47978;49.118;12.146;2023-07-20T02:00:12;6.47;;;5.07;;
62024;SDS011;47978;49.118;12.146;2023-07-20T02:04:15;9.10;;;4.63;;
62024;SDS011;47978;49.118;12.146;2023-07-20T02:08:17;12.95;;;4.85;;
62024;SDS011;47978;49.118;12.146;2023-07-20T02:12:18;8.35;;;4.75;;
62024;SDS011;47978;49.118;12.146;2023-07-20T02:16:20;6.80;;;5.32;;
62024;SDS011;47978;49.118;12.146;2023-07-20T02:20:23;9.73;;;5.82;;
62024;SDS011;47978;49.118;12.146;2023-07-20T02:24:25;7.22;;;5.13;;
62024;SDS011;47978;49.118;12.146;2023-07-20T02:28:26;10.57;;;5.57;;
62024;SDS011;47978;49.118;12.146;2023-07-20T02:32:28;11.88;;;6.35;;
62024;SDS011;47978;49.118;12.146;2023-07-20T02:44:35;7.80;;;5.90;;
62024;SDS011;47978;49.118;12.146;2023-07-20T02:48:37;7.57;;;6.05;;
62024;SDS011;47978;49.118;12.146;2023-07-20T02:52:39;14.25;;;6.00;;
62024;SDS011;47978;49.118;12.146;2023-07-20T02:56:41;11.10;;;6.38;;
62024;SDS011;47978;49.118;12.146;2023-07-20T03:00:43;7.30;;;5.38;;
62024;SDS011;47978;49.118;12.146;2023-07-20T03:04:45;8.93;;;6.10;;
62024;SDS011;47978;49.118;12.146;2023-07-20T03:08:46;7.55;;;5.38;;
62024;SDS011;47978;49.118;12.146;2023-07-20T03:12:49;6.75;;;4.80;;
62024;SDS011;47978;49.118;12.146;2023-07-20T03:16:51;9.60;;;5.63;;
62024;SDS011;47978;49.118;12.146;2023-07-20T03:20:52;8.85;;;5.60;;
62024;SDS011;47978;49.118;12.146;2023-07-20T03:24:54;8.52;;;5.60;;
62024;SDS011;47978;49.118;12.146;2023-07-20T03:28:57;10.27;;;6.10;;
62024;SDS011;47978;49.118;12.146;2023-07-20T03:32:58;9.63;;;5.95;;
62024;SDS011;47978;49.118;12.146;2023-07-20T03:37:00;9.63;;;6.03;;
62024;SDS011;47978;49.118;12.146;2023-07-20T03:41:02;8.88;;;5.90;;
62024;SDS011;47978;49.118;12.146;2023-07-20T03:45:05;7.53;;;5.97;;
62024;SDS011;47978;49.118;12.146;2023-07-20T03:49:07;9.95;;;5.90;;
62024;SDS011;47978;49.118;12.146;2023-07-20T03:53:09;10.80;;;5.80;;
62024;SDS011;47978;49.118;12.146;2023-07-20T03:57:11;8.15;;;5.93;;
62024;SDS011;47978;49.118;12.146;2023-07-20T04:01:13;8.95;;;5.55;;
62024;SDS011;47978;49.118;12.146;2023-07-20T04:05:15;12.65;;;5.95;;
62024;SDS011;47978;49.118;12.146;2023-07-20T04:09:17;11.63;;;6.70;;
62024;SDS011;47978;49.118;12.146;2023-07-20T04:13:18;9.13;;;6.70;;
62024;SDS011;47978;49.118;12.146;2023-07-20T04:17:21;11.55;;;6.72;;
62024;SDS011;47978;49.118;12.146;2023-07-20T04:21:23;8.98;;;5.90;;
62024;SDS011;47978;49.118;12.146;2023-07-20T04:25:27;12.13;;;5.90;;
62024;SDS011;47978;49.118;12.146;2023-07-20T04:29:28;12.07;;;6.30;;
62024;SDS011;47978;49.118;12.146;2023-07-20T04:33:31;8.38;;;6.40;;
62024;SDS011;47978;49.118;12.146;2023-07-20T04:37:33;8.15;;;5.90;;
62024;SDS011;47978;49.118;12.146;2023-07-20T04:41:34;8.88;;;6.05;;
62024;SDS011;47978;49.118;12.146;2023-07-20T04:45:36;11.73;;;6.18;;
62024;SDS011;47978;49.118;12.146;2023-07-20T04:49:39;10.60;;;6.03;;
62024;SDS011;47978;49.118;12.146;2023-07-20T04:53:40;11.13;;;5.55;;
62024;SDS011;47978;49.118;12.146;2023-07-20T04:57:42;8.63;;;5.32;;
62024;SDS011;47978;49.118;12.146;2023-07-20T05:01:44;10.63;;;5.53;;
62024;SDS011;47978;49.118;12.146;2023-07-20T05:05:47;13.30;;;5.20;;
62024;SDS011;47978;49.118;12.146;2023-07-20T05:09:50;11.30;;;5.35;;
62024;SDS011;47978;49.118;12.146;2023-07-20T05:13:52;9.65;;;5.30;;
62024;SDS011;47978;49.118;12.146;2023-07-20T05:17:53;7.35;;;5.43;;
62024;SDS011;47978;49.118;12.146;2023-07-20T05:21:56;10.20;;;6.07;;
62024;SDS011;47978;49.118;12.146;2023-07-20T05:30:00;6.80;;;4.60;;
62024;SDS011;47978;49.118;12.146;2023-07-20T05:34:02;9.85;;;5.40;;
62024;SDS011;47978;49.118;12.146;2023-07-20T05:38:05;7.43;;;5.72;;
62024;SDS011;47978;49.118;12.146;2023-07-20T05:46:08;10.05;;;4.93;;
62024;SDS011;47978;49.118;12.146;2023-07-20T05:50:10;11.95;;;5.40;;
62024;SDS011;47978;49.118;12.146;2023-07-20T05:54:13;11.38;;;5.97;;
62024;SDS011;47978;49.118;12.146;2023-07-20T06:02:16;9.98;;;4.95;;
62024;SDS011;47978;49.118;12.146;2023-07-20T06:06:17;13.27;;;5.13;;
62024;SDS011;47978;49.118;12.146;2023-07-20T06:10:20;7.43;;;4.70;;
62024;SDS011;47978;49.118;12.146;2023-07-20T06:18:23;12.65;;;5.70;;
62024;SDS011;47978;49.118;12.146;2023-07-20T06:22:25;12.68;;;5.82;;
62024;SDS011;47978;49.118;12.146;2023-07-20T06:26:28;10.63;;;6.40;;
62024;SDS011;47978;49.118;12.146;2023-07-20T06:30:29;11.15;;;6.28;;
62024;SDS011;47978;49.118;12.146;2023-07-20T06:34:31;12.05;;;5.90;;
62024;SDS011;47978;49.118;12.146;2023-07-20T06:38:33;10.18;;;4.82;;
62024;SDS011;47978;49.118;12.146;2023-07-20T06:42:35;7.57;;;5.50;;
62024;SDS011;47978;49.118;12.146;2023-07-20T06:46:40;8.88;;;4.90;;
62024;SDS011;47978;49.118;12.146;2023-07-20T06:50:42;8.25;;;4.93;;
62024;SDS011;47978;49.118;12.146;2023-07-20T06:54:44;7.43;;;4.05;;
62024;SDS011;47978;49.118;12.146;2023-07-20T06:58:47;9.30;;;4.38;;
62024;SDS011;47978;49.118;12.146;2023-07-20T07:02:48;9.00;;;3.58;;
62024;SDS011;47978;49.118;12.146;2023-07-20T07:06:51;7.72;;;4.15;;
62024;SDS011;47978;49.118;12.146;2023-07-20T07:10:53;7.53;;;3.47;;
62024;SDS011;47978;49.118;12.146;2023-07-20T07:14:56;7.40;;;3.83;;
62024;SDS011;47978;49.118;12.146;2023-07-20T07:18:57;6.00;;;3.80;;
62024;SDS011;47978;49.118;12.146;2023-07-20T07:23:02;7.00;;;4.30;;
62024;SDS011;47978;49.118;12.146;2023-07-20T07:27:04;4.88;;;3.25;;
62024;SDS011;47978;49.118;12.146;2023-07-20T07:31:08;8.00;;;3.67;;
62024;SDS011;47978;49.118;12.146;2023-07-20T07:35:10;5.45;;;3.47;;
62024;SDS011;47978;49.118;12.146;2023-07-20T07:39:12;5.82;;;3.33;;
62024;SDS011;47978;49.118;12.146;2023-07-20T07:43:16;7.03;;;3.70;;
62024;SDS011;47978;49.118;12.146;2023-07-20T07:47:19;10.32;;;3.53;;
62024;SDS011;47978;49.118;12.146;2023-07-20T07:51:21;4.30;;;2.92;;
62024;SDS011;47978;49.118;12.146;2023-07-20T07:55:23;4.15;;;2.58;;
62024;SDS011;47978;49.118;12.146;2023-07-20T07:59:25;7.35;;;2.80;;
62024;SDS011;47978;49.118;12.146;2023-07-20T08:03:28;4.22;;;2.58;;
62024;SDS011;47978;49.118;12.146;2023-07-20T08:07:30;5.15;;;2.50;;
62024;SDS011;47978;49.118;12.146;2023-07-20T08:11:31;4.00;;;2.30;;
62024;SDS011;47978;49.118;12.146;2023-07-20T08:15:34;5.15;;;2.50;;
62024;SDS011;47978;49.118;12.146;2023-07-20T08:19:37;4.00;;;2.80;;
62024;SDS011;47978;49.118;12.146;2023-07-20T08:23:39;4.30;;;2.28;;
62024;SDS011;47978;49.118;12.146;2023-07-20T08:27:40;5.97;;;1.88;;
62024;SDS011;47978;49.118;12.146;2023-07-20T08:31:42;4.55;;;2.55;;
62024;SDS011;47978;49.118;12.146;2023-07-20T08:35:45;5.03;;;2.30;;
62024;SDS011;47978;49.118;12.146;2023-07-20T08:39:46;3.83;;;1.95;;
62024;SDS011;47978;49.118;12.146;2023-07-20T08:43:48;4.00;;;1.90;;
62024;SDS011;47978;49.118;12.146;2023-07-20T08:47:52;4.25;;;2.22;;
62024;SDS011;47978;49.118;12.146;2023-07-20T08:51:56;3.55;;;1.48;;
62024;SDS011;47978;49.118;12.146;2023-07-20T08:55:58;2.95;;;1.80;;
62024;SDS011;47978;49.118;12.146;2023-07-20T09:00:02;3.45;;;1.75;;
62024;SDS011;47978;49.118;12.146;2023-07-20T09:04:04;4.75;;;1.85;;
62024;SDS011;47978;49.118;12.146;2023-07-20T09:08:08;2.17;;;1.55;;
62024;SDS011;47978;49.118;12.146;2023-07-20T09:12:13;3.38;;;1.70;;
62024;SDS011;47978;49.118;12.146;2023-07-20T09:16:15;4.00;;;2.05;;
62024;SDS011;47978;49.118;12.146;2023-07-20T09:20:17;3.97;;;1.60;;
62024;SDS011;47978;49.118;12.146;2023-07-20T09:24:25;2.30;;;1.30;;
62024;SDS011;47978;49.118;12.146;2023-07-20T09:28:30;2.92;;;1.40;;
62024;SDS011;47978;49.118;12.146;2023-07-20T09:32:43;3.70;;;1.45;;
62024;SDS011;47978;49.118;12.146;2023-07-20T09:36:49;2.80;;;1.45;;
62024;SDS011;47978;49.118;12.146;2023-07-20T09:40:54;2.25;;;1.58;;
62024;SDS011;47978;49.118;12.146;2023-07-20T09:44:59;4.85;;;1.83;;
62024;SDS011;47978;49.118;12.146;2023-07-20T09:49:00;4.45;;;1.67;;
62024;SDS011;47978;49.118;12.146;2023-07-20T09:53:05;3.40;;;1.48;;
62024;SDS011;47978;49.118;12.146;2023-07-20T09:57:12;2.63;;;1.50;;
62024;SDS011;47978;49.118;12.146;2023-07-20T10:01:14;2.88;;;1.77;;
62024;SDS011;47978;49.118;12.146;2023-07-20T10:05:24;3.17;;;1.40;;
62024;SDS011;47978;49.118;12.146;2023-07-20T10:09:28;2.83;;;1.73;;
62024;SDS011;47978;49.118;12.146;2023-07-20T10:13:32;2.78;;;1.75;;
62024;SDS011;47978;49.118;12.146;2023-07-20T10:17:40;3.70;;;1.60;;
62024;SDS011;47978;49.118;12.146;2023-07-20T10:21:47;3.53;;;1.42;;
62024;SDS011;47978;49.118;12.146;2023-07-20T10:25:59;3.05;;;1.75;;
62024;SDS011;47978;49.118;12.146;2023-07-20T10:30:05;2.60;;;1.70;;
62024;SDS011;47978;49.118;12.146;2023-07-20T10:34:07;4.03;;;1.85;;
62024;SDS011;47978;49.118;12.146;2023-07-20T10:38:11;2.72;;;1.50;;
62024;SDS011;47978;49.118;12.146;2023-07-20T10:42:12;1.73;;;1.33;;
62024;SDS011;47978;49.118;12.146;2023-07-20T10:46:16;4.32;;;1.42;;
62024;SDS011;47978;49.118;12.146;2023-07-20T10:50:35;2.22;;;1.27;;
62024;SDS011;47978;49.118;12.146;2023-07-20T10:54:49;3.90;;;1.77;;
62024;SDS011;47978;49.118;12.146;2023-07-20T10:58:54;5.43;;;1.70;;
62024;SDS011;47978;49.118;12.146;2023-07-20T11:02:59;2.60;;;1.30;;
62024;SDS011;47978;49.118;12.146;2023-07-20T11:07:01;2.60;;;1.42;;
62024;SDS011;47978;49.118;12.146;2023-07-20T11:15:23;1.80;;;1.30;;
62024;SDS011;47978;49.118;12.146;2023-07-20T11:19:26;1.67;;;1.02;;
62024;SDS011;47978;49.118;12.146;2023-07-20T11:23:31;2.42;;;1.20;;
62024;SDS011;47978;49.118;12.146;2023-07-20T11:27:33;1.73;;;1.10;;
62024;SDS011;47978;49.118;12.146;2023-07-20T11:31:46;2.67;;;1.83;;
62024;SDS011;47978;49.118;12.146;2023-07-20T11:35:51;2.40;;;1.27;;
62024;SDS011;47978;49.118;12.146;2023-07-20T11:39:54;1.58;;;1.05;;
62024;SDS011;47978;49.118;12.146;2023-07-20T11:43:57;1.63;;;1.08;;
62024;SDS011;47978;49.118;12.146;2023-07-20T11:47:58;3.28;;;1.70;;
62024;SDS011;47978;49.118;12.146;2023-07-20T11:52:02;2.47;;;1.30;;
62024;SDS011;47978;49.118;12.146;2023-07-20T11:56:04;3.97;;;1.10;;
62024;SDS011;47978;49.118;12.146;2023-07-20T12:00:07;1.80;;;1.20;;
62024;SDS011;47978;49.118;12.146;2023-07-20T12:04:09;2.40;;;1.30;;
62024;SDS011;47978;49.118;12.146;2023-07-20T12:08:12;1.33;;;1.00;;
62024;SDS011;47978;49.118;12.146;2023-07-20T12:12:14;2.63;;;1.42;;
62024;SDS011;47978;49.118;12.146;2023-07-20T12:16:16;3.15;;;1.40;;
62024;SDS011;47978;49.118;12.146;2023-07-20T12:20:27;2.85;;;1.38;;
62024;SDS011;47978;49.118;12.146;2023-07-20T12:24:31;2.63;;;1.25;;
62024;SDS011;47978;49.118;12.146;2023-07-20T12:28:33;2.78;;;1.30;;
62024;SDS011;47978;49.118;12.146;2023-07-20T12:32:36;2.25;;;1.30;;
62024;SDS011;47978;49.118;12.146;2023-07-20T12:36:38;2.30;;;1.33;;
62024;SDS011;47978;49.118;12.146;2023-07-20T12:40:41;2.35;;;1.30;;
62024;SDS011;47978;49.118;12.146;2023-07-20T12:44:43;1.63;;;1.00;;
62024;SDS011;47978;49.118;12.146;2023-07-20T12:48:44;2.25;;;0.90;;
62024;SDS011;47978;49.118;12.146;2023-07-20T12:52:50;2.10;;;1.30;;
62024;SDS011;47978;49.118;12.146;2023-07-20T12:56:53;1.83;;;1.20;;
62024;SDS011;47978;49.118;12.146;2023-07-20T13:00:57;1.42;;;1.05;;
62024;SDS011;47978;49.118;12.146;2023-07-20T13:05:02;2.42;;;1.23;;
62024;SDS011;47978;49.118;12.146;2023-07-20T13:09:04;1.88;;;1.20;;
62024;SDS011;47978;49.118;12.146;2023-07-20T13:13:07;2.78;;;1.13;;
62024;SDS011;47978;49.118;12.146;2023-07-20T13:17:08;2.67;;;1.20;;
62024;SDS011;47978;49.118;12.146;2023-07-20T13:21:10;3.22;;;1.48;;
62024;SDS011;47978;49.118;12.146;2023-07-20T13:25:13;2.88;;;1.30;;
62024;SDS011;47978;49.118;12.146;2023-07-20T13:29:16;3.92;;;1.20;;
62024;SDS011;47978;49.118;12.146;2023-07-20T13:33:17;2.67;;;1.20;;
62024;SDS011;47978;49.118;12.146;2023-07-20T13:37:19;2.57;;;1.40;;
62024;SDS011;47978;49.118;12.146;2023-07-20T13:41:22;2.70;;;1.10;;
62024;SDS011;47978;49.118;12.146;2023-07-20T13:45:26;2.05;;;1.15;;
62024;SDS011;47978;49.118;12.146;2023-07-20T13:49:28;1.67;;;1.20;;
62024;SDS011;47978;49.118;12.146;2023-07-20T13:53:29;6.53;;;1.20;;
62024;SDS011;47978;49.118;12.146;2023-07-20T13:57:34;4.13;;;1.50;;
62024;SDS011;47978;49.118;12.146;2023-07-20T14:01:37;1.73;;;0.80;;
62024;SDS011;47978;49.118;12.146;2023-07-20T14:05:39;1.85;;;1.30;;
62024;SDS011;47978;49.118;12.146;2023-07-20T14:09:44;2.13;;;1.00;;
62024;SDS011;47978;49.118;12.146;2023-07-20T14:13:48;1.73;;;1.00;;
62024;SDS011;47978;49.118;12.146;2023-07-20T14:17:51;1.45;;;1.10;;
62024;SDS011;47978;49.118;12.146;2023-07-20T14:21:54;2.53;;;1.10;;
62024;SDS011;47978;49.118;12.146;2023-07-20T14:25:56;1.73;;;0.90;;
62024;SDS011;47978;49.118;12.146;2023-07-20T14:30:00;1.27;;;0.80;;
62024;SDS011;47978;49.118;12.146;2023-07-20T14:34:02;1.67;;;1.05;;
62024;SDS011;47978;49.118;12.146;2023-07-20T14:38:04;1.83;;;1.10;;
62024;SDS011;47978;49.118;12.146;2023-07-20T14:42:06;1.65;;;1.20;;
62024;SDS011;47978;49.118;12.146;2023-07-20T14:46:08;2.58;;;1.10;;
62024;SDS011;47978;49.118;12.146;2023-07-20T14:50:11;1.90;;;1.20;;
62024;SDS011;47978;49.118;12.146;2023-07-20T14:54:12;4.13;;;1.00;;
62024;SDS011;47978;49.118;12.146;2023-07-20T14:58:14;1.40;;;0.90;;
